createdAt,value
2023-04-19T00:00:09.062Z,21.67
2023-04-19T00:01:09.144Z,21.67
2023-04-19T00:02:09.316Z,21.68
2023-04-19T00:03:09.467Z,21.67
2023-04-19T00:04:09.546Z,21.68
2023-04-19T00:05:09.393Z,21.67
2023-04-19T00:06:09.432Z,21.67
2023-04-19T00:07:09.501Z,21.67
2023-04-19T00:08:09.552Z,21.67
2023-04-19T00:09:09.593Z,21.67
2023-04-19T00:10:09.660Z,21.67
2023-04-19T00:11:09.732Z,21.66
2023-04-19T00:12:09.754Z,21.66
2023-04-19T00:13:09.822Z,21.66
2023-04-19T00:14:09.859Z,21.65
2023-04-19T00:15:09.858Z,21.65
2023-04-19T00:16:09.942Z,21.66
2023-04-19T00:17:10.006Z,21.65
2023-04-19T00:18:10.080Z,21.65
2023-04-19T00:19:10.083Z,21.65
2023-04-19T00:20:10.135Z,21.65
2023-04-19T00:21:10.275Z,21.65
2023-04-19T00:22:10.239Z,21.65
2023-04-19T00:23:10.314Z,21.65
2023-04-19T00:24:10.330Z,21.66
2023-04-19T00:25:10.392Z,21.65
2023-04-19T00:26:10.430Z,21.65
2023-04-19T00:27:10.502Z,21.65
2023-04-19T00:28:10.572Z,21.66
2023-04-19T00:29:10.579Z,21.65
2023-04-19T00:30:10.601Z,21.65
2023-04-19T00:31:10.703Z,21.66
2023-04-19T00:32:10.661Z,21.64
2023-04-19T00:33:10.746Z,21.65
2023-04-19T00:34:10.756Z,21.65
2023-04-19T00:35:10.746Z,21.65
2023-04-19T00:36:10.804Z,21.64
2023-04-19T00:37:10.827Z,21.64
2023-04-19T00:38:10.859Z,21.64
2023-04-19T00:39:10.917Z,21.65
2023-04-19T00:40:10.925Z,21.64
2023-04-19T00:41:11.000Z,21.64
2023-04-19T00:42:11.065Z,21.64
2023-04-19T00:43:11.103Z,21.64
2023-04-19T00:44:11.142Z,21.64
2023-04-19T00:45:11.165Z,21.64
2023-04-19T00:46:11.255Z,21.64
2023-04-19T00:47:11.272Z,21.62
2023-04-19T00:48:11.335Z,21.63
2023-04-19T00:49:11.358Z,21.63
2023-04-19T00:50:11.369Z,21.63
2023-04-19T00:51:11.433Z,21.62
2023-04-19T00:52:11.477Z,21.62
2023-04-19T00:53:11.513Z,21.62
2023-04-19T00:54:11.503Z,21.63
2023-04-19T00:55:11.523Z,21.62
2023-04-19T00:56:11.583Z,21.61
2023-04-19T00:57:11.631Z,21.61
2023-04-19T00:58:11.691Z,21.61
2023-04-19T00:59:11.703Z,21.60
2023-04-19T01:00:11.713Z,21.61
2023-04-19T01:01:11.823Z,21.61
2023-04-19T01:02:11.889Z,21.61
2023-04-19T01:03:12.102Z,21.60
2023-04-19T01:04:11.961Z,21.60
2023-04-19T01:05:12.006Z,21.61
2023-04-19T01:06:12.038Z,21.61
2023-04-19T01:07:12.082Z,21.60
2023-04-19T01:08:12.115Z,21.61
2023-04-19T01:09:12.172Z,21.60
2023-04-19T01:10:12.175Z,21.59
2023-04-19T01:11:12.214Z,21.60
2023-04-19T01:12:12.288Z,21.60
2023-04-19T01:13:12.292Z,21.60
2023-04-19T01:14:12.341Z,21.60
2023-04-19T01:15:12.344Z,21.59
2023-04-19T01:16:12.372Z,21.60
2023-04-19T01:17:12.350Z,21.60
2023-04-19T01:18:12.407Z,21.59
2023-04-19T01:19:12.431Z,21.59
2023-04-19T01:20:12.458Z,21.59
2023-04-19T01:21:12.442Z,21.59
2023-04-19T01:22:12.467Z,21.59
2023-04-19T01:23:12.489Z,21.59
2023-04-19T01:24:12.587Z,21.59
2023-04-19T01:25:12.560Z,21.59
2023-04-19T01:26:12.555Z,21.58
2023-04-19T01:27:12.595Z,21.58
2023-04-19T01:28:12.636Z,21.59
2023-04-19T01:29:12.702Z,21.58
2023-04-19T01:30:12.716Z,21.58
2023-04-19T01:31:12.796Z,21.58
2023-04-19T01:32:12.761Z,21.58
2023-04-19T01:33:12.778Z,21.58
2023-04-19T01:34:12.954Z,21.58
2023-04-19T01:35:12.810Z,21.59
2023-04-19T01:36:12.801Z,21.59
2023-04-19T01:37:12.859Z,21.57
2023-04-19T01:38:12.838Z,21.57
2023-04-19T01:39:12.848Z,21.57
2023-04-19T01:40:12.860Z,21.57
2023-04-19T01:41:12.894Z,21.57
2023-04-19T01:42:12.907Z,21.57
2023-04-19T01:43:13.538Z,21.58
2023-04-19T01:44:13.173Z,21.57
2023-04-19T01:45:12.962Z,21.56
2023-04-19T01:46:12.958Z,21.57
2023-04-19T01:47:13.125Z,21.57
2023-04-19T01:48:13.013Z,21.57
2023-04-19T01:49:13.024Z,21.57
2023-04-19T01:50:13.010Z,21.56
2023-04-19T01:51:13.023Z,21.56
2023-04-19T01:52:13.072Z,21.56
2023-04-19T01:53:13.097Z,21.56
2023-04-19T01:54:13.269Z,21.56
2023-04-19T01:55:13.150Z,21.56
2023-04-19T01:56:13.112Z,21.56
2023-04-19T01:57:13.115Z,21.55
2023-04-19T01:58:13.106Z,21.56
2023-04-19T01:59:13.133Z,21.56
2023-04-19T02:00:13.134Z,21.56
2023-04-19T02:01:13.178Z,21.56
2023-04-19T02:02:13.243Z,21.56
2023-04-19T02:03:13.252Z,21.56
2023-04-19T02:04:13.485Z,21.55
2023-04-19T02:05:13.218Z,21.55
2023-04-19T02:06:13.217Z,21.55
2023-04-19T02:07:13.260Z,21.55
2023-04-19T02:08:13.228Z,21.54
2023-04-19T02:09:13.249Z,21.55
2023-04-19T02:10:13.250Z,21.55
2023-04-19T02:11:13.286Z,21.55
2023-04-19T02:12:13.255Z,21.54
2023-04-19T02:13:13.276Z,21.55
2023-04-19T02:14:13.457Z,21.55
2023-04-19T02:15:13.322Z,21.55
2023-04-19T02:16:13.427Z,21.55
2023-04-19T02:17:13.403Z,21.55
2023-04-19T02:18:14.024Z,21.55
2023-04-19T02:19:13.378Z,21.55
2023-04-19T02:20:13.386Z,21.55
2023-04-19T02:21:13.420Z,21.55
2023-04-19T02:22:13.424Z,21.55
2023-04-19T02:23:13.449Z,21.55
2023-04-19T02:24:13.706Z,21.55
2023-04-19T02:25:13.453Z,21.55
2023-04-19T02:26:13.459Z,21.54
2023-04-19T02:27:13.460Z,21.53
2023-04-19T02:28:13.463Z,21.54
2023-04-19T02:29:13.509Z,21.53
2023-04-19T02:30:13.515Z,21.54
2023-04-19T02:31:13.582Z,21.54
2023-04-19T02:32:13.568Z,21.54
2023-04-19T02:33:13.538Z,21.54
2023-04-19T02:34:13.761Z,21.53
2023-04-19T02:35:13.593Z,21.54
2023-04-19T02:36:13.655Z,21.53
2023-04-19T02:37:13.544Z,21.54
2023-04-19T02:38:13.556Z,21.53
2023-04-19T02:39:13.583Z,21.54
2023-04-19T02:40:13.623Z,21.53
2023-04-19T02:41:13.592Z,21.53
2023-04-19T02:42:13.601Z,21.53
2023-04-19T02:43:13.585Z,21.52
2023-04-19T02:44:13.742Z,21.52
2023-04-19T02:45:13.597Z,21.51
2023-04-19T02:46:13.635Z,21.51
2023-04-19T02:47:13.642Z,21.51
2023-04-19T02:48:13.725Z,21.52
2023-04-19T02:49:13.732Z,21.52
2023-04-19T02:50:13.697Z,21.51
2023-04-19T02:51:13.735Z,21.51
2023-04-19T02:52:13.732Z,21.52
2023-04-19T02:53:13.701Z,21.52
2023-04-19T02:54:13.854Z,21.51
2023-04-19T02:55:13.735Z,21.52
2023-04-19T02:56:13.736Z,21.52
2023-04-19T02:57:13.773Z,21.52
2023-04-19T02:58:13.740Z,21.52
2023-04-19T02:59:13.759Z,21.51
2023-04-19T03:00:13.801Z,21.51
2023-04-19T03:01:13.813Z,21.51
2023-04-19T03:02:13.759Z,21.51
2023-04-19T03:03:13.825Z,21.51
2023-04-19T03:04:13.981Z,21.51
2023-04-19T03:05:13.765Z,21.51
2023-04-19T03:06:13.767Z,21.51
2023-04-19T03:07:13.812Z,21.51
2023-04-19T03:08:13.822Z,21.51
2023-04-19T03:09:13.801Z,21.51
2023-04-19T03:10:13.807Z,21.50
2023-04-19T03:11:13.774Z,21.51
2023-04-19T03:12:13.776Z,21.50
2023-04-19T03:13:13.769Z,21.50
2023-04-19T03:14:13.911Z,21.50
2023-04-19T03:15:13.774Z,21.50
2023-04-19T03:16:13.872Z,21.51
2023-04-19T03:17:13.815Z,21.50
2023-04-19T03:18:13.802Z,21.49
2023-04-19T03:19:13.800Z,21.49
2023-04-19T03:20:13.835Z,21.49
2023-04-19T03:21:13.805Z,21.49
2023-04-19T03:22:13.796Z,21.49
2023-04-19T03:23:13.828Z,21.49
2023-04-19T03:24:13.980Z,21.49
2023-04-19T03:25:13.826Z,21.49
2023-04-19T03:26:13.846Z,21.48
2023-04-19T03:27:13.806Z,21.48
2023-04-19T03:28:13.804Z,21.49
2023-04-19T03:29:13.819Z,21.49
2023-04-19T03:30:13.849Z,21.49
2023-04-19T03:31:13.948Z,21.49
2023-04-19T03:32:13.857Z,21.48
2023-04-19T03:33:13.899Z,21.48
2023-04-19T03:34:14.090Z,21.48
2023-04-19T03:35:13.903Z,21.47
2023-04-19T03:36:13.894Z,21.48
2023-04-19T03:37:13.944Z,21.47
2023-04-19T03:38:13.974Z,21.49
2023-04-19T03:39:13.989Z,21.48
2023-04-19T03:40:13.947Z,21.48
2023-04-19T03:41:13.991Z,21.48
2023-04-19T03:42:13.957Z,21.48
2023-04-19T03:43:13.982Z,21.47
2023-04-19T03:45:13.983Z,21.47
2023-04-19T03:46:14.027Z,21.46
2023-04-19T03:47:14.008Z,21.46
2023-04-19T03:48:13.981Z,21.46
2023-04-19T03:49:14.013Z,21.46
2023-04-19T03:50:13.987Z,21.45
2023-04-19T03:51:14.015Z,21.45
2023-04-19T03:52:14.005Z,21.46
2023-04-19T03:53:14.014Z,21.47
2023-04-19T03:54:14.269Z,21.45
2023-04-19T03:55:14.062Z,21.46
2023-04-19T03:56:14.042Z,21.45
2023-04-19T03:57:14.034Z,21.46
2023-04-19T03:58:14.043Z,21.46
2023-04-19T03:59:14.011Z,21.46
2023-04-19T04:00:14.040Z,21.46
2023-04-19T04:01:14.004Z,21.45
2023-04-19T04:02:14.087Z,21.45
2023-04-19T04:03:14.216Z,21.45
2023-04-19T04:04:14.450Z,21.45
2023-04-19T04:05:14.117Z,21.45
2023-04-19T04:06:14.007Z,21.46
2023-04-19T04:07:14.082Z,21.45
2023-04-19T04:08:14.003Z,21.45
2023-04-19T04:09:14.004Z,21.45
2023-04-19T04:10:13.986Z,21.45
2023-04-19T04:11:13.996Z,21.45
2023-04-19T04:12:14.009Z,21.45
2023-04-19T04:13:14.044Z,21.45
2023-04-19T04:14:14.222Z,21.45
2023-04-19T04:15:14.019Z,21.45
2023-04-19T04:16:14.002Z,21.45
2023-04-19T04:17:14.011Z,21.44
2023-04-19T04:18:14.006Z,21.45
2023-04-19T04:19:14.000Z,21.45
2023-04-19T04:20:13.989Z,21.45
2023-04-19T04:21:14.018Z,21.45
2023-04-19T04:22:13.980Z,21.44
2023-04-19T04:23:13.987Z,21.45
2023-04-19T04:24:14.200Z,21.45
2023-04-19T04:25:13.983Z,21.45
2023-04-19T04:26:14.082Z,21.44
2023-04-19T04:27:14.070Z,21.44
2023-04-19T04:28:14.034Z,21.44
2023-04-19T04:29:13.981Z,21.44
2023-04-19T04:30:14.038Z,21.44
2023-04-19T04:31:14.035Z,21.44
2023-04-19T04:32:14.020Z,21.44
2023-04-19T04:33:14.001Z,21.44
2023-04-19T04:34:14.162Z,21.43
2023-04-19T04:35:14.061Z,21.44
2023-04-19T04:36:14.007Z,21.44
2023-04-19T04:37:14.010Z,21.44
2023-04-19T04:38:23.581Z,21.44
2023-04-19T04:39:14.985Z,21.44
2023-04-19T04:40:13.996Z,21.44
2023-04-19T04:41:14.003Z,21.43
2023-04-19T04:42:13.989Z,21.43
2023-04-19T04:43:13.946Z,21.43
2023-04-19T04:44:14.172Z,21.44
2023-04-19T04:45:13.946Z,21.43
2023-04-19T04:46:13.983Z,21.43
2023-04-19T04:47:13.927Z,21.42
2023-04-19T04:48:13.915Z,21.42
2023-04-19T04:49:14.153Z,21.42
2023-04-19T04:50:13.925Z,21.42
2023-04-19T04:51:13.893Z,21.42
2023-04-19T04:52:13.945Z,21.42
2023-04-19T04:53:13.916Z,21.42
2023-04-19T04:54:14.044Z,21.42
2023-04-19T04:55:13.866Z,21.43
2023-04-19T04:56:13.951Z,21.43
2023-04-19T04:57:13.887Z,21.42
2023-04-19T04:58:13.868Z,21.42
2023-04-19T04:59:13.861Z,21.42
2023-04-19T05:00:13.842Z,21.42
2023-04-19T05:01:13.930Z,21.42
2023-04-19T05:02:13.912Z,21.43
2023-04-19T05:03:13.997Z,21.43
2023-04-19T05:04:14.109Z,21.42
2023-04-19T05:05:13.784Z,21.42
2023-04-19T05:06:13.815Z,21.43
2023-04-19T05:07:13.811Z,21.42
2023-04-19T05:08:13.771Z,21.42
2023-04-19T05:09:13.793Z,21.42
2023-04-19T05:10:13.869Z,21.42
2023-04-19T05:11:13.745Z,21.42
2023-04-19T05:12:13.759Z,21.42
2023-04-19T05:13:13.745Z,21.41
2023-04-19T05:14:14.028Z,21.42
2023-04-19T05:15:13.739Z,21.42
2023-04-19T05:16:13.771Z,21.41
2023-04-19T05:17:13.694Z,21.42
2023-04-19T05:18:13.718Z,21.41
2023-04-19T05:19:13.692Z,21.41
2023-04-19T05:20:13.719Z,21.42
2023-04-19T05:21:13.828Z,21.41
2023-04-19T05:22:13.688Z,21.41
2023-04-19T05:23:13.674Z,21.41
2023-04-19T05:24:13.704Z,21.42
2023-04-19T05:25:13.674Z,21.40
2023-04-19T05:26:13.792Z,21.40
2023-04-19T05:27:13.669Z,21.41
2023-04-19T05:28:13.724Z,21.43
2023-04-19T05:29:13.684Z,21.44
2023-04-19T05:30:13.630Z,21.45
2023-04-19T05:31:13.648Z,21.48
2023-04-19T05:32:13.667Z,21.50
2023-04-19T05:33:13.755Z,21.53
2023-04-19T05:34:13.788Z,21.55
2023-04-19T05:35:13.668Z,21.57
2023-04-19T05:36:13.886Z,21.60
2023-04-19T05:37:13.821Z,21.63
2023-04-19T05:38:13.846Z,21.65
2023-04-19T05:39:13.898Z,21.68
2023-04-19T05:40:14.032Z,21.71
2023-04-19T05:41:14.058Z,21.74
2023-04-19T05:42:14.214Z,21.77
2023-04-19T05:43:14.125Z,21.83
2023-04-19T05:44:14.372Z,21.87
2023-04-19T05:45:14.252Z,21.90
2023-04-19T05:46:14.239Z,21.95
2023-04-19T05:47:14.158Z,21.99
2023-04-19T05:48:14.166Z,22.02
2023-04-19T05:49:14.168Z,22.05
2023-04-19T05:50:14.216Z,22.08
2023-04-19T05:51:14.259Z,22.11
2023-04-19T05:52:14.248Z,22.14
2023-04-19T05:53:14.286Z,22.17
2023-04-19T05:54:14.891Z,22.21
2023-04-19T05:55:14.673Z,22.23
2023-04-19T05:56:14.271Z,22.26
2023-04-19T05:57:14.270Z,22.29
2023-04-19T05:58:14.267Z,22.33
2023-04-19T05:59:14.699Z,22.36
2023-04-19T06:00:14.282Z,22.40
2023-04-19T06:01:14.416Z,22.42
2023-04-19T06:02:14.549Z,22.44
2023-04-19T06:03:14.767Z,22.48
2023-04-19T06:04:14.911Z,22.51
2023-04-19T06:05:14.684Z,22.54
2023-04-19T06:06:14.946Z,22.54
2023-04-19T06:07:30.096Z,22.56
2023-04-19T06:08:15.721Z,22.57
2023-04-19T06:09:14.683Z,22.60
2023-04-19T06:10:15.191Z,22.62
2023-04-19T06:11:23.350Z,22.65
2023-04-19T06:12:15.752Z,22.64
2023-04-19T06:13:14.705Z,22.68
2023-04-19T06:14:15.075Z,22.70
2023-04-19T06:15:14.672Z,22.72
2023-04-19T06:16:14.705Z,22.75
2023-04-19T06:17:14.623Z,22.77
2023-04-19T06:18:19.759Z,22.80
2023-04-19T06:19:15.606Z,22.82
2023-04-19T06:20:14.602Z,22.84
2023-04-19T06:21:14.631Z,22.87
2023-04-19T06:22:14.607Z,22.89
2023-04-19T06:23:14.576Z,22.90
2023-04-19T06:24:14.730Z,22.92
2023-04-19T06:25:14.604Z,22.95
2023-04-19T06:26:14.561Z,22.95
2023-04-19T06:27:14.558Z,22.97
2023-04-19T06:28:14.531Z,22.98
2023-04-19T06:29:14.644Z,22.99
2023-04-19T06:30:14.527Z,23.00
2023-04-19T06:31:14.567Z,23.00
2023-04-19T06:32:14.549Z,23.03
2023-04-19T06:33:14.522Z,22.99
2023-04-19T06:34:14.511Z,22.93
2023-04-19T06:35:14.545Z,22.83
2023-04-19T06:36:14.539Z,22.76
2023-04-19T06:37:14.813Z,22.72
2023-04-19T06:38:14.633Z,22.64
2023-04-19T06:39:14.711Z,22.61
2023-04-19T06:40:14.779Z,22.56
2023-04-19T06:41:14.842Z,22.50
2023-04-19T06:42:14.973Z,22.48
2023-04-19T06:43:14.933Z,22.49
2023-04-19T06:44:15.488Z,22.53
2023-04-19T06:45:15.045Z,22.54
2023-04-19T06:46:15.102Z,22.53
2023-04-19T06:47:15.062Z,22.52
2023-04-19T06:48:15.070Z,22.51
2023-04-19T06:49:15.106Z,22.49
2023-04-19T06:50:15.140Z,22.46
2023-04-19T06:51:15.082Z,22.44
2023-04-19T06:52:15.112Z,22.42
2023-04-19T06:53:15.125Z,22.40
2023-04-19T06:54:15.179Z,22.37
2023-04-19T06:55:15.150Z,22.36
2023-04-19T06:56:15.168Z,22.35
2023-04-19T06:57:15.165Z,22.33
2023-04-19T06:58:15.189Z,22.31
2023-04-19T06:59:15.200Z,22.29
2023-04-19T07:00:15.261Z,22.32
2023-04-19T07:01:15.219Z,22.33
2023-04-19T07:02:15.369Z,22.35
2023-04-19T07:03:15.351Z,22.38
2023-04-19T07:04:15.865Z,22.41
2023-04-19T07:05:15.249Z,22.45
2023-04-19T07:06:15.253Z,22.47
2023-04-19T07:07:15.277Z,22.50
2023-04-19T07:08:15.240Z,22.52
2023-04-19T07:09:15.263Z,22.55
2023-04-19T07:10:15.294Z,22.57
2023-04-19T07:11:15.310Z,22.59
2023-04-19T07:12:15.365Z,22.59
2023-04-19T07:13:15.377Z,22.62
2023-04-19T07:14:15.767Z,22.60
2023-04-19T07:15:15.469Z,22.62
2023-04-19T07:16:15.682Z,22.62
2023-04-19T07:17:15.524Z,22.61
2023-04-19T07:18:15.530Z,22.60
2023-04-19T07:19:15.655Z,22.59
2023-04-19T07:20:15.557Z,22.57
2023-04-19T07:21:15.521Z,22.55
2023-04-19T07:22:15.566Z,22.55
2023-04-19T07:23:15.519Z,22.54
2023-04-19T07:24:15.835Z,22.53
2023-04-19T07:25:15.591Z,22.51
2023-04-19T07:26:15.574Z,22.49
2023-04-19T07:27:15.736Z,22.47
2023-04-19T07:28:15.626Z,22.43
2023-04-19T07:29:15.618Z,22.43
2023-04-19T07:30:15.651Z,22.42
2023-04-19T07:31:15.672Z,22.40
2023-04-19T07:32:15.628Z,22.40
2023-04-19T07:33:15.675Z,22.41
2023-04-19T07:34:15.811Z,22.37
2023-04-19T07:35:15.703Z,22.37
2023-04-19T07:36:15.647Z,22.41
2023-04-19T07:37:15.678Z,22.44
2023-04-19T07:38:15.667Z,22.47
2023-04-19T07:39:16.713Z,22.49
2023-04-19T07:40:16.247Z,22.52
2023-04-19T07:41:15.694Z,22.50
2023-04-19T07:42:15.715Z,22.51
2023-04-19T07:43:15.733Z,22.50
2023-04-19T07:44:15.856Z,22.49
2023-04-19T07:45:16.190Z,22.46
2023-04-19T07:46:15.761Z,22.44
2023-04-19T07:47:15.708Z,22.44
2023-04-19T07:48:15.902Z,22.46
2023-04-19T07:49:15.733Z,22.48
2023-04-19T07:50:16.183Z,22.52
2023-04-19T07:51:15.781Z,22.55
2023-04-19T07:52:15.808Z,22.58
2023-04-19T07:53:15.863Z,22.62
2023-04-19T07:54:16.043Z,22.66
2023-04-19T07:55:16.168Z,22.70
2023-04-19T07:56:15.999Z,22.72
2023-04-19T07:57:16.043Z,22.76
2023-04-19T07:58:16.129Z,22.81
2023-04-19T07:59:16.163Z,22.85
2023-04-19T08:00:16.202Z,22.89
2023-04-19T08:01:16.253Z,22.92
2023-04-19T08:02:16.321Z,22.95
2023-04-19T08:03:16.527Z,22.98
2023-04-19T08:04:16.914Z,23.00
2023-04-19T08:05:16.441Z,23.02
2023-04-19T08:06:16.360Z,23.06
2023-04-19T08:07:16.352Z,23.08
2023-04-19T08:08:16.379Z,23.09
2023-04-19T08:09:16.414Z,23.11
2023-04-19T08:10:16.414Z,23.12
2023-04-19T08:11:16.513Z,23.15
2023-04-19T08:12:30.299Z,23.17
2023-04-19T08:13:17.438Z,23.18
2023-04-19T08:14:28.357Z,23.20
2023-04-19T08:16:03.031Z,23.21
2023-04-19T08:16:40.046Z,23.22
2023-04-19T08:17:24.332Z,23.26
2023-04-19T08:18:17.410Z,23.27
2023-04-19T08:19:16.430Z,23.29
2023-04-19T08:20:16.680Z,23.31
2023-04-19T08:21:16.424Z,23.32
2023-04-19T08:22:16.374Z,23.33
2023-04-19T08:23:24.098Z,23.35
2023-04-19T08:24:17.639Z,23.36
2023-04-19T08:25:16.378Z,23.37
2023-04-19T08:26:16.341Z,23.37
2023-04-19T08:27:16.432Z,23.37
2023-04-19T08:28:16.388Z,23.37
2023-04-19T08:29:16.704Z,23.38
2023-04-19T08:30:16.714Z,23.38
2023-04-19T08:31:16.285Z,23.40
2023-04-19T08:32:16.381Z,23.39
2023-04-19T08:33:16.359Z,23.39
2023-04-19T08:34:16.272Z,23.38
2023-04-19T08:35:16.295Z,23.37
2023-04-19T08:36:22.049Z,23.37
2023-04-19T08:37:17.291Z,23.37
2023-04-19T08:38:16.281Z,23.36
2023-04-19T08:39:29.219Z,23.35
2023-04-19T08:40:17.692Z,23.35
2023-04-19T08:41:16.224Z,23.36
2023-04-19T08:43:16.203Z,23.32
2023-04-19T08:44:19.838Z,23.31
2023-04-19T08:45:27.687Z,23.31
2023-04-19T08:46:17.222Z,23.31
2023-04-19T08:47:27.046Z,23.34
2023-04-19T08:48:17.316Z,23.36
2023-04-19T08:49:16.443Z,23.38
2023-04-19T08:50:28.904Z,23.41
2023-04-19T08:51:17.131Z,23.42
2023-04-19T08:52:16.172Z,23.45
2023-04-19T08:53:24.789Z,23.46
2023-04-19T08:54:17.175Z,23.48
2023-04-19T08:55:16.137Z,23.49
2023-04-19T08:56:24.365Z,23.50
2023-04-19T08:57:17.082Z,23.52
2023-04-19T08:58:28.542Z,23.54
2023-04-19T08:59:18.744Z,23.53
2023-04-19T09:00:16.196Z,23.55
2023-04-19T09:01:26.783Z,23.56
2023-04-19T09:02:17.173Z,23.57
2023-04-19T09:03:16.253Z,23.58
2023-04-19T09:05:16.281Z,23.60
2023-04-19T09:06:16.290Z,23.61
2023-04-19T09:07:16.037Z,23.61
2023-04-19T09:08:16.109Z,23.61
2023-04-19T09:09:33.255Z,23.61
2023-04-19T09:10:17.157Z,23.60
2023-04-19T09:11:16.133Z,23.61
2023-04-19T09:12:16.123Z,23.62
2023-04-19T09:13:16.178Z,23.63
2023-04-19T09:14:16.106Z,23.61
2023-04-19T09:15:16.076Z,23.60
2023-04-19T09:16:16.119Z,23.62
2023-04-19T09:17:16.083Z,23.64
2023-04-19T09:18:16.126Z,23.63
2023-04-19T09:19:24.330Z,23.63
2023-04-19T09:20:17.279Z,23.61
2023-04-19T09:21:16.174Z,23.60
2023-04-19T09:22:16.152Z,23.57
2023-04-19T09:23:16.109Z,23.54
2023-04-19T09:24:16.321Z,23.52
2023-04-19T09:25:39.111Z,23.51
2023-04-19T09:26:23.542Z,23.44
2023-04-19T09:27:17.061Z,23.39
2023-04-19T09:28:16.053Z,23.42
2023-04-19T09:29:16.241Z,23.44
2023-04-19T09:30:27.889Z,23.46
2023-04-19T09:32:17.089Z,23.48
2023-04-19T09:33:16.169Z,23.46
2023-04-19T09:34:16.029Z,23.39
2023-04-19T09:35:16.221Z,23.35
2023-04-19T09:36:16.029Z,23.34
2023-04-19T09:37:28.073Z,23.34
2023-04-19T09:38:16.994Z,23.34
2023-04-19T09:39:16.273Z,23.38
2023-04-19T09:40:16.009Z,23.40
2023-04-19T09:41:15.969Z,23.44
2023-04-19T09:42:20.735Z,23.47
2023-04-19T09:43:45.262Z,23.49
2023-04-19T09:46:16.839Z,23.51
2023-04-19T09:47:15.928Z,23.53
2023-04-19T09:48:15.974Z,23.54
2023-04-19T09:49:22.999Z,23.56
2023-04-19T09:50:24.005Z,23.56
2023-04-19T09:51:17.229Z,23.57
2023-04-19T09:52:15.916Z,23.58
2023-04-19T09:53:15.892Z,23.59
2023-04-19T09:54:15.957Z,23.61
2023-04-19T09:55:26.709Z,23.61
2023-04-19T09:56:17.220Z,23.61
2023-04-19T09:57:15.853Z,23.62
2023-04-19T09:58:15.918Z,23.62
2023-04-19T09:59:20.850Z,23.64
2023-04-19T10:00:17.434Z,23.63
2023-04-19T10:01:17.033Z,23.65
2023-04-19T10:02:15.889Z,23.65
2023-04-19T10:03:15.930Z,23.65
2023-04-19T10:04:26.218Z,23.66
2023-04-19T10:05:21.211Z,23.66
2023-04-19T10:08:15.832Z,23.67
2023-04-19T10:09:16.004Z,23.69
2023-04-19T10:10:20.475Z,23.70
2023-04-19T10:11:16.761Z,23.71
2023-04-19T10:12:39.042Z,23.72
2023-04-19T10:13:20.745Z,23.73
2023-04-19T10:14:16.730Z,23.73
2023-04-19T10:15:15.755Z,23.74
2023-04-19T10:16:20.049Z,23.74
2023-04-19T10:17:15.772Z,23.75
2023-04-19T10:18:15.680Z,23.75
2023-04-19T10:19:16.025Z,23.76
2023-04-19T10:20:15.772Z,23.76
2023-04-19T10:21:15.675Z,23.77
2023-04-19T10:22:15.693Z,23.73
2023-04-19T10:23:15.654Z,23.67
2023-04-19T10:24:15.723Z,23.67
2023-04-19T10:25:15.734Z,23.70
2023-04-19T10:26:16.294Z,23.68
2023-04-19T10:27:15.807Z,23.66
2023-04-19T10:28:15.867Z,23.66
2023-04-19T10:29:16.085Z,23.68
2023-04-19T10:30:15.964Z,23.70
2023-04-19T10:31:16.412Z,23.71
2023-04-19T10:32:16.059Z,23.72
2023-04-19T10:33:16.084Z,23.73
2023-04-19T10:34:16.186Z,23.74
2023-04-19T10:35:16.169Z,23.74
2023-04-19T10:36:16.319Z,23.74
2023-04-19T10:37:16.280Z,23.75
2023-04-19T10:38:16.412Z,23.76
2023-04-19T10:39:16.510Z,23.77
2023-04-19T10:40:16.479Z,23.76
2023-04-19T10:41:18.264Z,23.76
2023-04-19T10:42:16.510Z,23.77
2023-04-19T10:43:16.573Z,23.76
2023-04-19T10:44:16.752Z,23.76
2023-04-19T10:45:16.659Z,23.76
2023-04-19T10:46:16.784Z,23.75
2023-04-19T10:47:16.812Z,23.76
2023-04-19T10:48:16.801Z,23.75
2023-04-19T10:49:17.110Z,23.74
2023-04-19T10:50:16.907Z,23.74
2023-04-19T10:51:16.944Z,23.75
2023-04-19T10:52:17.003Z,23.74
2023-04-19T10:53:17.062Z,23.72
2023-04-19T10:54:17.100Z,23.73
2023-04-19T10:55:17.149Z,23.73
2023-04-19T10:56:17.257Z,23.72
2023-04-19T10:57:17.292Z,23.71
2023-04-19T10:58:17.333Z,23.71
2023-04-19T10:59:18.411Z,23.72
2023-04-19T11:00:17.441Z,23.71
2023-04-19T11:01:17.646Z,23.70
2023-04-19T11:02:17.647Z,23.70
2023-04-19T11:03:17.805Z,23.70
2023-04-19T11:04:17.815Z,23.69
2023-04-19T11:05:20.198Z,23.68
2023-04-19T11:06:18.031Z,23.68
2023-04-19T11:07:18.053Z,23.67
2023-04-19T11:08:18.123Z,23.66
2023-04-19T11:09:18.189Z,23.66
2023-04-19T11:10:18.236Z,23.66
2023-04-19T11:11:18.814Z,23.65
2023-04-19T11:12:18.378Z,23.64
2023-04-19T11:13:18.365Z,23.64
2023-04-19T11:14:18.405Z,23.64
2023-04-19T11:15:18.447Z,23.64
2023-04-19T11:16:19.716Z,23.63
2023-04-19T11:17:18.577Z,23.63
2023-04-19T11:18:18.515Z,23.63
2023-04-19T11:19:18.735Z,23.62
2023-04-19T11:20:18.584Z,23.62
2023-04-19T11:21:18.539Z,23.60
2023-04-19T11:22:18.763Z,23.61
2023-04-19T11:23:18.539Z,23.60
2023-04-19T11:24:18.607Z,23.60
2023-04-19T11:25:18.564Z,23.60
2023-04-19T11:26:18.541Z,23.59
2023-04-19T11:27:18.598Z,23.59
2023-04-19T11:28:18.623Z,23.59
2023-04-19T11:29:18.623Z,23.58
2023-04-19T11:30:18.584Z,23.57
2023-04-19T11:31:18.709Z,23.57
2023-04-19T11:32:18.623Z,23.57
2023-04-19T11:33:18.577Z,23.56
2023-04-19T11:34:18.696Z,23.56
2023-04-19T11:35:18.625Z,23.55
2023-04-19T11:36:18.726Z,23.54
2023-04-19T11:37:18.797Z,23.55
2023-04-19T11:38:18.786Z,23.55
2023-04-19T11:39:18.804Z,23.55
2023-04-19T11:40:18.801Z,23.54
2023-04-19T11:41:18.759Z,23.54
2023-04-19T11:42:18.794Z,23.54
2023-04-19T11:43:18.847Z,23.54
2023-04-19T11:44:19.109Z,23.54
2023-04-19T11:45:28.686Z,23.53
2023-04-19T11:46:20.109Z,23.53
2023-04-19T11:47:19.035Z,23.52
2023-04-19T11:48:18.990Z,23.52
2023-04-19T11:49:18.981Z,23.52
2023-04-19T11:50:18.979Z,23.52
2023-04-19T11:51:18.974Z,23.51
2023-04-19T11:52:18.979Z,23.51
2023-04-19T11:53:18.977Z,23.50
2023-04-19T11:54:19.122Z,23.50
2023-04-19T11:55:19.000Z,23.51
2023-04-19T11:56:18.960Z,23.50
2023-04-19T11:57:18.944Z,23.50
2023-04-19T11:58:18.937Z,23.49
2023-04-19T11:59:18.910Z,23.49
2023-04-19T12:00:18.930Z,23.49
2023-04-19T12:01:19.289Z,23.49
2023-04-19T12:02:19.008Z,23.48
2023-04-19T12:03:19.047Z,23.48
2023-04-19T12:04:19.140Z,23.48
2023-04-19T12:05:19.067Z,23.48
2023-04-19T12:06:19.289Z,23.48
2023-04-19T12:07:19.301Z,23.48
2023-04-19T12:08:18.864Z,23.47
2023-04-19T12:09:18.855Z,23.47
2023-04-19T12:10:18.863Z,23.48
2023-04-19T12:11:19.284Z,23.47
2023-04-19T12:12:19.305Z,23.47
2023-04-19T12:13:18.964Z,23.46
2023-04-19T12:14:19.249Z,23.46
2023-04-19T12:15:18.980Z,23.46
2023-04-19T12:16:19.033Z,23.46
2023-04-19T12:17:19.061Z,23.46
2023-04-19T12:18:19.029Z,23.45
2023-04-19T12:19:19.131Z,23.45
2023-04-19T12:20:19.072Z,23.45
2023-04-19T12:21:19.180Z,23.45
2023-04-19T12:22:19.195Z,23.45
2023-04-19T12:23:19.187Z,23.45
2023-04-19T12:24:19.194Z,23.44
2023-04-19T12:25:19.218Z,23.44
2023-04-19T12:26:19.278Z,23.45
2023-04-19T12:27:19.798Z,23.44
2023-04-19T12:28:19.339Z,23.44
2023-04-19T12:29:19.356Z,23.43
2023-04-19T12:30:19.333Z,23.42
2023-04-19T12:31:19.346Z,23.43
2023-04-19T12:32:19.502Z,23.43
2023-04-19T12:33:19.422Z,23.42
2023-04-19T12:34:19.406Z,23.42
2023-04-19T12:35:19.426Z,23.42
2023-04-19T12:36:19.427Z,23.42
2023-04-19T12:37:19.436Z,23.42
2023-04-19T12:38:19.471Z,23.41
2023-04-19T12:39:19.468Z,23.41
2023-04-19T12:40:19.440Z,23.41
2023-04-19T12:41:19.511Z,23.41
2023-04-19T12:42:19.527Z,23.40
2023-04-19T12:43:19.505Z,23.40
2023-04-19T12:44:19.515Z,23.39
2023-04-19T12:45:19.534Z,23.38
2023-04-19T12:46:19.652Z,23.38
2023-04-19T12:47:19.633Z,23.38
2023-04-19T12:48:19.650Z,23.37
2023-04-19T12:49:19.670Z,23.36
2023-04-19T12:50:19.645Z,23.36
2023-04-19T12:51:19.660Z,23.35
2023-04-19T12:52:19.732Z,23.35
2023-04-19T12:53:19.724Z,23.35
2023-04-19T12:54:19.714Z,23.34
2023-04-19T12:55:19.731Z,23.34
2023-04-19T12:56:19.774Z,23.33
2023-04-19T12:57:19.798Z,23.32
2023-04-19T12:58:19.807Z,23.32
2023-04-19T12:59:19.920Z,23.31
2023-04-19T13:00:19.855Z,23.31